Time;durP1;ratioP1;P1;durP2;ratioP2;P2;SDS_P1;SDS_P2;PMS_P1;PMS_P2;Temp;Humidity;BMP_temperature;BMP_pressure;BME280_temperature;BME280_humidity;BME280_pressure;Samples;Min_cycle;Max_cycle;Signal;HPM_P1;HPM_P2
2020/12/25 00:02:16;;;;;;;4.15;3.27;;;;;;;2.75;100.00;98729.31;1762137;79;21391;-52
2020/12/25 00:09:09;;;;;;;4.97;4.40;;;;;;;2.83;100.00;98700.64;1732637;79;22975;-52
2020/12/25 00:11:37;;;;;;;5.30;4.22;;;;;;;2.78;100.00;98700.41;1698212;82;21469;-45
2020/12/25 00:14:05;;;;;;;7.55;5.20;;;;;;;2.80;100.00;98689.22;1695306;82;21365;-46
2020/12/25 00:16:32;;;;;;;7.35;5.45;;;;;;;2.82;100.00;98687.36;1694977;82;21469;-47
2020/12/25 00:19:00;;;;;;;8.78;4.60;;;;;;;2.81;100.00;98688.30;1696695;82;21010;-47
2020/12/25 00:21:28;;;;;;;5.67;4.22;;;;;;;2.80;100.00;98679.91;1696933;82;20978;-53
2020/12/25 00:23:56;;;;;;;7.42;4.15;;;;;;;2.79;100.00;98684.83;1696444;82;21422;-54
2020/12/25 00:26:28;;;;;;;5.15;3.98;;;;;;;2.79;100.00;98702.13;1703084;82;21385;-55
2020/12/25 00:28:57;;;;;;;3.98;3.30;;;;;;;2.81;100.00;98712.25;1700850;82;21587;-46
2020/12/25 00:31:35;;;;;;;5.85;4.30;;;;;;;2.82;100.00;98719.31;1696331;82;20970;-46
2020/12/25 00:34:05;;;;;;;4.83;3.95;;;;;;;2.84;100.00;98713.48;1701670;82;21149;-53
2020/12/25 00:36:36;;;;;;;6.17;3.60;;;;;;;2.84;100.00;98718.34;1697758;82;21109;-53
2020/12/25 00:39:10;;;;;;;4.90;3.53;;;;;;;2.88;100.00;98703.14;1699043;82;21382;-47
2020/12/25 00:41:49;;;;;;;5.25;3.85;;;;;;;2.90;100.00;98711.94;1693926;82;21603;-53
2020/12/25 00:44:17;;;;;;;3.40;2.77;;;;;;;2.91;100.00;98721.66;1697470;82;21026;-52
2020/12/25 00:46:45;;;;;;;3.17;2.75;;;;;;;2.94;100.00;98715.36;1695485;82;21572;-46
2020/12/25 00:49:13;;;;;;;4.35;3.40;;;;;;;2.95;100.00;98704.65;1697746;82;21116;-46
2020/12/25 00:51:41;;;;;;;3.47;3.17;;;;;;;2.96;100.00;98706.38;1699175;82;21374;-47
2020/12/25 00:54:09;;;;;;;3.72;3.00;;;;;;;2.99;100.00;98701.42;1635811;82;21124;-47
2020/12/25 00:56:49;;;;;;;3.08;2.30;;;;;;;3.04;100.00;98693.67;1805951;78;22743;-47
2020/12/25 00:59:18;;;;;;;3.35;2.80;;;;;;;3.00;100.00;98692.04;1748548;79;20998;-53
2020/12/25 01:01:48;;;;;;;3.05;2.80;;;;;;;3.01;100.00;98685.78;1738716;81;21525;-53
2020/12/25 01:04:16;;;;;;;4.17;2.45;;;;;;;3.02;100.00;98682.19;1738024;80;20985;-54
2020/12/25 01:06:44;;;;;;;3.33;2.33;;;;;;;3.03;100.00;98667.94;1735255;81;21588;-53
2020/12/25 01:09:11;;;;;;;2.33;2.12;;;;;;;3.06;100.00;98678.48;1731197;80;21437;-54
2020/12/25 01:11:40;;;;;;;2.25;2.05;;;;;;;3.08;100.00;98668.63;1736640;81;21063;-46
2020/12/25 01:14:08;;;;;;;2.87;2.45;;;;;;;3.08;100.00;98665.97;1737338;81;21946;-47
2020/12/25 01:16:36;;;;;;;3.85;2.65;;;;;;;3.11;100.00;98662.34;1731561;81;21019;-53
2020/12/25 01:19:03;;;;;;;3.27;2.60;;;;;;;3.12;100.00;98655.62;1734974;81;21073;-52
2020/12/25 01:21:32;;;;;;;3.30;2.80;;;;;;;3.14;100.00;98657.78;1734124;80;21037;-54
2020/12/25 01:23:59;;;;;;;2.80;2.50;;;;;;;3.14;100.00;98647.13;1712516;81;21434;-54
2020/12/25 01:26:28;;;;;;;4.42;2.87;;;;;;;3.15;100.00;98648.86;1736188;81;22861;-54
2020/12/25 01:29:03;;;;;;;5.65;4.15;;;;;;;3.18;100.00;98646.98;1740527;81;21558;-53
2020/12/25 01:31:31;;;;;;;6.05;4.80;;;;;;;3.17;100.00;98640.80;1733041;81;21324;-47
2020/12/25 01:33:59;;;;;;;6.80;4.72;;;;;;;3.19;100.00;98646.05;1736652;81;21097;-54
2020/12/25 01:36:26;;;;;;;5.87;4.17;;;;;;;3.19;100.00;98643.39;1735251;80;21096;-51
2020/12/25 01:38:54;;;;;;;5.37;4.17;;;;;;;3.20;100.00;98631.84;1733899;80;21814;-54
2020/12/25 01:41:22;;;;;;;5.12;4.05;;;;;;;3.22;100.00;98649.95;1734163;80;21268;-47
2020/12/25 01:43:50;;;;;;;5.15;4.20;;;;;;;3.24;100.00;98644.08;1732783;81;21151;-50
2020/12/25 01:46:18;;;;;;;5.35;4.00;;;;;;;3.26;100.00;98658.23;1737283;80;21037;-46
2020/12/25 01:48:45;;;;;;;5.20;4.00;;;;;;;3.26;100.00;98656.91;1710346;81;21246;-55
2020/12/25 01:51:14;;;;;;;5.37;3.85;;;;;;;3.27;100.00;98658.17;1690967;81;21388;-46
2020/12/25 01:53:42;;;;;;;4.30;3.55;;;;;;;3.29;100.00;98656.77;1735437;81;21223;-45
2020/12/25 01:56:10;;;;;;;4.60;3.92;;;;;;;3.31;100.00;98650.94;1743136;80;21140;-47
2020/12/25 01:58:39;;;;;;;5.65;3.98;;;;;;;3.30;100.00;98646.51;1748130;81;21568;-52
2020/12/25 02:01:07;;;;;;;5.45;3.95;;;;;;;3.31;100.00;98648.27;1725407;81;21109;-47
2020/12/25 02:03:36;;;;;;;6.55;4.20;;;;;;;3.32;100.00;98647.34;1719434;81;22121;-46
2020/12/25 02:06:04;;;;;;;5.17;4.20;;;;;;;3.35;100.00;98641.88;1745771;81;21053;-53
2020/12/25 02:08:32;;;;;;;5.22;4.72;;;;;;;3.37;100.00;98648.03;1746297;81;21474;-52
2020/12/25 02:10:59;;;;;;;8.40;4.83;;;;;;;3.39;100.00;98651.48;1747267;81;20979;-48
2020/12/25 02:13:29;;;;;;;6.62;4.67;;;;;;;3.40;100.00;98650.55;1749271;81;20994;-53
2020/12/25 02:15:56;;;;;;;6.47;4.53;;;;;;;3.40;100.00;98646.09;1752641;81;21534;-46
2020/12/25 02:18:37;;;;;;;7.25;4.97;;;;;;;3.42;100.00;98638.06;1748009;81;21165;-46
2020/12/25 02:21:05;;;;;;;6.17;4.92;;;;;;;3.43;100.00;98629.13;1752569;79;21166;-46
2020/12/25 02:23:32;;;;;;;8.45;5.83;;;;;;;3.47;100.00;98637.41;1747108;81;21458;-52
2020/12/25 02:26:00;;;;;;;9.23;5.62;;;;;;;3.48;100.00;98645.81;1749653;81;21667;-52
2020/12/25 02:28:28;;;;;;;8.65;5.42;;;;;;;3.49;100.00;98638.21;1747371;81;21381;-47
2020/12/25 02:30:56;;;;;;;10.63;6.72;;;;;;;3.53;100.00;98638.50;1749262;81;21747;-45
2020/12/25 02:33:25;;;;;;;12.28;7.67;;;;;;;3.54;100.00;98637.56;1744965;81;21049;-45
2020/12/25 02:35:54;;;;;;;12.10;6.53;;;;;;;3.54;100.00;98621.58;1746585;79;21624;-50
2020/12/25 02:38:22;;;;;;;10.50;6.67;;;;;;;3.56;100.00;98619.70;1746633;81;21136;-51
2020/12/25 02:40:50;;;;;;;11.18;7.12;;;;;;;3.57;100.00;98630.80;1747352;81;22064;-55
2020/12/25 02:43:17;;;;;;;12.93;7.75;;;;;;;3.59;100.00;98630.25;1748970;80;21581;-52
2020/12/25 02:45:45;;;;;;;11.00;7.70;;;;;;;3.62;100.00;98627.48;1746568;81;21014;-46
2020/12/25 02:48:13;;;;;;;13.83;8.13;;;;;;;3.66;100.00;98623.73;1748139;81;21573;-53
2020/12/25 02:50:40;;;;;;;15.63;9.00;;;;;;;3.68;100.00;98636.56;1750024;81;21509;-51
2020/12/25 02:53:08;;;;;;;16.32;9.53;;;;;;;3.71;100.00;98641.35;1743745;81;21518;-46
2020/12/25 02:55:36;;;;;;;14.73;9.18;;;;;;;3.73;100.00;98634.14;1746938;80;21009;-47
2020/12/25 02:58:04;;;;;;;17.95;9.80;;;;;;;3.72;100.00;98640.41;1754244;80;21773;-51
2020/12/25 03:00:31;;;;;;;16.50;10.55;;;;;;;3.74;100.00;98638.58;1756144;80;21104;-46
2020/12/25 03:02:59;;;;;;;15.83;10.45;;;;;;;3.77;100.00;98652.63;1758823;79;20998;-47
2020/12/25 03:05:28;;;;;;;19.02;11.63;;;;;;;3.79;100.00;98641.92;1759118;79;22272;-52
2020/12/25 03:07:56;;;;;;;13.43;9.65;;;;;;;3.80;100.00;98646.32;1752298;80;21164;-51
2020/12/25 03:10:23;;;;;;;19.15;11.22;;;;;;;3.82;100.00;98641.78;1754460;80;21009;-51
2020/12/25 03:12:51;;;;;;;17.07;10.53;;;;;;;3.84;100.00;98631.94;1754870;80;21612;-51
2020/12/25 03:15:19;;;;;;;19.10;11.53;;;;;;;3.90;100.00;98626.34;1753637;80;21192;-47
2020/12/25 03:17:46;;;;;;;19.67;12.03;;;;;;;3.92;100.00;98636.48;1753132;80;21368;-45
2020/12/25 03:20:14;;;;;;;23.45;13.68;;;;;;;3.94;100.00;98637.27;1752634;80;21180;-47
2020/12/25 03:22:42;;;;;;;24.82;12.37;;;;;;;3.94;100.00;98643.50;1753359;80;20997;-51
2020/12/25 03:25:10;;;;;;;24.90;14.47;;;;;;;3.95;100.00;98649.70;1755237;80;21145;-53
2020/12/25 03:27:38;;;;;;;25.02;13.62;;;;;;;3.96;100.00;98651.89;1755209;80;20966;-53
2020/12/25 03:30:06;;;;;;;25.95;15.05;;;;;;;3.98;100.00;98658.02;1752449;80;22102;-52
2020/12/25 03:32:33;;;;;;;28.07;15.43;;;;;;;3.98;100.00;98645.55;1753656;79;21069;-51
2020/12/25 03:35:02;;;;;;;21.95;14.13;;;;;;;4.00;100.00;98649.05;1756679;80;21190;-46
2020/12/25 03:37:30;;;;;;;26.82;15.40;;;;;;;4.02;100.00;98649.84;1755292;80;21489;-51
2020/12/25 03:39:58;;;;;;;27.00;15.63;;;;;;;4.04;100.00;98649.77;1760041;80;21017;-52
2020/12/25 03:42:26;;;;;;;24.95;15.75;;;;;;;4.07;100.00;98661.19;1753345;79;21203;-53
2020/12/25 03:44:54;;;;;;;27.20;15.70;;;;;;;4.10;100.00;98663.73;1754783;79;21148;-51
2020/12/25 03:47:24;;;;;;;29.80;16.25;;;;;;;4.13;100.00;98663.59;1752159;80;21192;-51
2020/12/25 03:50:00;;;;;;;28.60;16.05;;;;;;;4.22;100.00;98654.81;1843349;76;23336;-53
2020/12/25 03:52:28;;;;;;;30.20;17.12;;;;;;;4.20;100.00;98661.06;1749501;79;21043;-53
2020/12/25 03:54:56;;;;;;;35.15;18.73;;;;;;;4.22;100.00;98662.82;1748011;80;21377;-52
2020/12/25 03:57:23;;;;;;;32.93;17.77;;;;;;;4.25;100.00;98660.88;1750913;80;21046;-47
2020/12/25 03:59:51;;;;;;;34.25;17.60;;;;;;;4.28;100.00;98647.88;1748631;80;21323;-46
2020/12/25 04:02:19;;;;;;;29.40;16.90;;;;;;;4.32;100.00;98641.48;1748306;80;21029;-46
2020/12/25 04:04:47;;;;;;;31.68;17.48;;;;;;;4.34;100.00;98642.28;1749613;80;21042;-46
2020/12/25 04:07:15;;;;;;;33.53;18.12;;;;;;;4.37;100.00;98647.50;1777701;79;21365;-47
2020/12/25 04:09:42;;;;;;;34.20;18.02;;;;;;;4.39;100.00;98634.94;1776402;79;21140;-46
2020/12/25 04:12:10;;;;;;;38.08;19.92;;;;;;;4.43;100.00;98639.22;1782349;79;21006;-52
2020/12/25 04:14:38;;;;;;;36.95;19.85;;;;;;;4.46;100.00;98641.73;1777132;79;21121;-52
2020/12/25 04:17:05;;;;;;;28.20;16.35;;;;;;;4.50;100.00;98636.67;1775963;79;20971;-52
2020/12/25 04:19:33;;;;;;;31.68;19.77;;;;;;;4.53;100.00;98647.67;1777758;78;21450;-52
2020/12/25 04:22:01;;;;;;;42.70;20.30;;;;;;;4.55;100.00;98645.83;1780836;79;21578;-51
2020/12/25 04:24:28;;;;;;;39.53;20.20;;;;;;;4.57;100.00;98649.28;1775951;79;21589;-45
2020/12/25 04:26:56;;;;;;;36.05;20.55;;;;;;;4.60;100.00;98651.36;1775504;78;21152;-51
2020/12/25 04:29:24;;;;;;;36.85;20.30;;;;;;;4.61;100.00;98651.75;1777139;79;21601;-46
2020/12/25 04:31:52;;;;;;;43.78;21.70;;;;;;;4.63;100.00;98663.22;1775778;79;21363;-52
2020/12/25 04:34:19;;;;;;;41.40;23.90;;;;;;;4.62;100.00;98658.82;1775780;79;21176;-52
2020/12/25 04:36:47;;;;;;;38.10;21.85;;;;;;;4.63;100.00;98658.36;1776530;79;21124;-51
2020/12/25 04:39:15;;;;;;;41.68;23.73;;;;;;;4.69;100.00;98651.44;1776478;78;20987;-52
2020/12/25 04:41:43;;;;;;;46.60;25.35;;;;;;;4.70;100.00;98655.84;1776294;79;21588;-51
2020/12/25 04:44:11;;;;;;;38.98;21.70;;;;;;;4.72;100.00;98648.14;1777256;78;22237;-46
2020/12/25 04:46:38;;;;;;;43.28;23.45;;;;;;;4.72;100.00;98653.95;1776625;79;20982;-45
2020/12/25 04:49:07;;;;;;;40.00;22.25;;;;;;;4.71;100.00;98655.76;1783079;79;21121;-51
2020/12/25 04:51:36;;;;;;;46.02;25.17;;;;;;;4.71;100.00;98653.09;1789656;77;21092;-52
2020/12/25 04:54:03;;;;;;;41.08;23.32;;;;;;;4.75;100.00;98647.62;1817686;77;20969;-45
2020/12/25 04:56:31;;;;;;;41.00;23.52;;;;;;;4.73;100.00;98648.53;1816585;77;21437;-51
2020/12/25 04:58:59;;;;;;;43.23;25.30;;;;;;;4.75;100.00;98651.63;1816680;77;21093;-52
2020/12/25 05:01:26;;;;;;;44.15;24.10;;;;;;;4.76;100.00;98663.57;1817844;77;20985;-45
2020/12/25 05:03:54;;;;;;;55.23;28.98;;;;;;;4.76;100.00;98676.06;1825018;77;21658;-46
2020/12/25 05:06:22;;;;;;;46.80;27.45;;;;;;;4.75;100.00;98689.02;1790555;77;21900;-46
2020/12/25 05:08:51;;;;;;;46.98;25.95;;;;;;;4.77;100.00;98680.45;1819657;77;22269;-46
2020/12/25 05:11:20;;;;;;;47.98;26.50;;;;;;;4.75;100.00;98679.20;1824280;77;20971;-44
2020/12/25 05:13:55;;;;;;;44.35;25.48;;;;;;;4.75;100.00;98670.33;1819228;77;20942;-46
2020/12/25 05:16:23;;;;;;;50.28;26.82;;;;;;;4.76;100.00;98676.06;1817162;77;21088;-47
2020/12/25 05:18:52;;;;;;;48.78;28.67;;;;;;;4.76;100.00;98694.75;1817519;77;21058;-47
2020/12/25 05:21:21;;;;;;;54.27;27.27;;;;;;;4.76;100.00;98697.42;1818355;77;21518;-46
2020/12/25 05:23:49;;;;;;;49.03;26.70;;;;;;;4.74;100.00;98694.83;1818623;77;21521;-52
2020/12/25 05:26:18;;;;;;;50.92;28.40;;;;;;;4.75;100.00;98701.03;1817757;77;21601;-51
2020/12/25 05:28:48;;;;;;;54.08;28.85;;;;;;;4.76;100.00;98688.08;1818560;77;21131;-53
2020/12/25 05:31:16;;;;;;;54.00;27.70;;;;;;;4.76;100.00;98694.75;1819045;77;21537;-53
2020/12/25 05:33:45;;;;;;;51.02;28.35;;;;;;;4.75;100.00;98690.36;1819449;77;21529;-52
2020/12/25 05:36:14;;;;;;;49.58;28.92;;;;;;;4.77;100.00;98699.16;1786764;77;21171;-46
2020/12/25 05:38:48;;;;;;;49.15;27.25;;;;;;;4.76;100.00;98686.74;1815890;77;21001;-46
2020/12/25 05:41:24;;;;;;;51.37;28.12;;;;;;;4.83;100.00;98689.06;1820575;77;22292;-46
2020/12/25 05:43:53;;;;;;;52.58;27.73;;;;;;;4.77;100.00;98708.50;1767833;78;21022;-46
2020/12/25 05:46:21;;;;;;;47.83;25.92;;;;;;;4.76;100.00;98713.45;1746221;78;22260;-52
2020/12/25 05:48:50;;;;;;;59.85;28.87;;;;;;;4.77;100.00;98716.52;1745768;78;20967;-47
2020/12/25 05:51:21;;;;;;;56.15;30.88;;;;;;;4.77;100.00;98718.72;1754759;80;21026;-47
2020/12/25 05:53:49;;;;;;;56.73;31.50;;;;;;;4.80;100.00;98723.07;1751635;78;21664;-53
2020/12/25 05:56:17;;;;;;;56.70;30.32;;;;;;;4.82;100.00;98723.86;1719277;80;20958;-52
2020/12/25 05:58:45;;;;;;;57.30;30.17;;;;;;;4.84;100.00;98736.67;1747525;78;21399;-55
2020/12/25 06:01:13;;;;;;;55.70;29.80;;;;;;;4.86;100.00;98748.17;1745749;80;21379;-53
2020/12/25 06:03:41;;;;;;;50.83;28.45;;;;;;;4.87;100.00;98743.23;1723665;80;21005;-52
2020/12/25 06:06:13;;;;;;;50.50;30.62;;;;;;;4.86;100.00;98741.50;1747727;78;21573;-54
2020/12/25 06:08:59;;;;;;;58.52;31.15;;;;;;;4.89;100.00;98742.68;1752372;80;26918;-51
2020/12/25 06:11:30;;;;;;;59.75;31.75;;;;;;;4.90;100.00;98733.73;1746221;80;21366;-53
2020/12/25 06:13:58;;;;;;;;;;;;;;;4.89;100.00;98736.00;1751189;80;21220;-53
2020/12/25 06:16:27;;;;;;;57.35;32.67;;;;;;;4.89;100.00;98749.36;1750150;80;20220;-48
2020/12/25 06:19:09;;;;;;;56.92;30.43;;;;;;;4.90;100.00;98753.33;1747146;80;21002;-47
2020/12/25 06:21:58;;;;;;;61.80;32.60;;;;;;;4.91;100.00;98747.52;1751822;80;21121;-54
2020/12/25 06:24:38;;;;;;;56.13;31.40;;;;;;;4.92;100.00;98759.45;1740691;80;21651;-54
2020/12/25 06:27:06;;;;;;;59.58;31.60;;;;;;;4.94;100.00;98747.36;1750606;80;21234;-52
2020/12/25 06:29:34;;;;;;;54.88;30.77;;;;;;;4.94;100.00;98744.69;1748910;80;21239;-52
2020/12/25 06:32:02;;;;;;;56.65;32.17;;;;;;;4.96;100.00;98748.18;1745816;80;20978;-53
2020/12/25 06:34:46;;;;;;;57.78;32.70;;;;;;;4.99;100.00;98751.56;1713491;80;21168;-48
2020/12/25 06:37:15;;;;;;;58.00;34.38;;;;;;;5.00;100.00;98751.09;1750806;80;21282;-47
2020/12/25 06:39:54;;;;;;;59.88;32.93;;;;;;;4.99;100.00;98750.70;1753107;80;21164;-49
2020/12/25 06:42:35;;;;;;;56.25;32.35;;;;;;;5.03;100.00;98763.00;1766939;80;21037;-47
2020/12/25 06:45:10;;;;;;;58.65;32.03;;;;;;;5.03;100.00;98759.46;1757088;80;21695;-47
2020/12/25 06:47:39;;;;;;;59.58;33.63;;;;;;;5.04;100.00;98760.72;1762874;78;20981;-52
2020/12/25 06:50:13;;;;;;;55.83;32.05;;;;;;;5.03;100.00;98769.67;1772094;80;21389;-53
2020/12/25 06:52:56;;;;;;;58.90;32.45;;;;;;;5.03;100.00;98771.02;1770708;80;21426;-55
2020/12/25 06:55:42;;;;;;;62.08;33.53;;;;;;;5.08;100.00;98785.04;1807357;78;22745;-52
2020/12/25 06:58:10;;;;;;;59.93;32.48;;;;;;;5.02;100.00;98791.99;1775849;79;21023;-53
2020/12/25 07:00:41;;;;;;;59.35;31.90;;;;;;;5.02;100.00;98798.67;1744644;79;21148;-52
2020/12/25 07:03:13;;;;;;;65.60;34.20;;;;;;;5.03;100.00;98795.06;1748972;79;20974;-54
2020/12/25 07:05:48;;;;;;;64.85;35.50;;;;;;;5.04;100.00;98794.12;1747211;79;21079;-48
2020/12/25 07:08:29;;;;;;;56.53;33.30;;;;;;;5.06;100.00;98797.61;1742987;79;21016;-53
2020/12/25 07:11:06;;;;;;;66.93;35.07;;;;;;;5.05;100.00;98793.17;1753325;79;20992;-54
2020/12/25 07:13:35;;;;;;;74.35;36.42;;;;;;;5.07;100.00;98788.66;1749992;79;21369;-49
2020/12/25 07:16:05;;;;;;;66.00;37.50;;;;;;;5.09;100.00;98796.13;1758349;79;21140;-51
2020/12/25 07:18:41;;;;;;;74.35;42.45;;;;;;;5.16;100.00;98790.91;1811136;76;22711;-50
2020/12/25 07:21:09;;;;;;;67.85;38.30;;;;;;;5.12;100.00;98794.67;1765200;79;21029;-48
2020/12/25 07:23:44;;;;;;;77.53;42.53;;;;;;;5.14;100.00;98808.82;1772887;78;21794;-52
2020/12/25 07:26:14;;;;;;;76.02;43.42;;;;;;;5.14;100.00;98816.84;1750031;80;21013;-52
2020/12/25 07:28:42;;;;;;;72.30;40.80;;;;;;;5.15;100.00;98807.88;1760498;79;20981;-53
2020/12/25 07:31:10;;;;;;;70.78;41.23;;;;;;;5.18;100.00;98819.79;1764765;79;21009;-47
2020/12/25 07:33:38;;;;;;;68.40;39.95;;;;;;;5.19;100.00;98821.98;1764082;79;21132;-53
2020/12/25 07:36:10;;;;;;;64.37;38.53;;;;;;;5.20;100.00;98829.06;1765622;79;21362;-52
2020/12/25 07:38:38;;;;;;;;;;;;;;;5.23;100.00;98821.80;1774190;79;20997;-46
2020/12/25 07:41:06;;;;;;;64.32;35.70;;;;;;;5.25;100.00;98824.39;1770301;78;20186;-47
2020/12/25 07:43:34;;;;;;;61.73;37.33;;;;;;;5.23;100.00;98827.14;1768111;78;21831;-47
2020/12/25 07:46:02;;;;;;;63.42;36.20;;;;;;;5.24;100.00;98843.57;1767315;79;21120;-52
2020/12/25 07:48:30;;;;;;;60.88;34.88;;;;;;;5.28;100.00;98840.31;1761769;78;21327;-51
2020/12/25 07:51:00;;;;;;;58.45;34.55;;;;;;;5.28;100.00;98847.47;1734896;80;21160;-51
2020/12/25 07:53:30;;;;;;;56.85;33.15;;;;;;;5.30;100.00;98848.25;1750092;79;21132;-52
2020/12/25 07:56:02;;;;;;;52.95;31.50;;;;;;;5.30;100.00;98854.94;1764552;78;21203;-52
2020/12/25 07:58:30;;;;;;;;;;;;;;;5.30;100.00;98854.94;1770976;78;21501;-51
2020/12/25 08:00:58;;;;;;;53.85;31.37;;;;;;;5.32;100.00;98859.73;1765660;79;21270;-52
2020/12/25 08:03:25;;;;;;;49.35;30.27;;;;;;;5.32;100.00;98857.06;1724247;79;21670;-52
2020/12/25 08:05:53;;;;;;;48.33;28.15;;;;;;;5.32;100.00;98865.08;1748289;79;21426;-51
2020/12/25 08:08:21;;;;;;;52.95;27.87;;;;;;;5.32;100.00;98868.62;1763478;78;21172;-53
2020/12/25 08:10:51;;;;;;;44.73;27.82;;;;;;;5.34;100.00;98871.25;1751138;79;21005;-52
2020/12/25 08:13:20;;;;;;;44.88;28.62;;;;;;;5.33;100.00;98866.84;1765866;79;22194;-51
2020/12/25 08:15:48;;;;;;;46.25;27.52;;;;;;;5.35;100.00;98862.29;1767780;78;21152;-55
2020/12/25 08:18:17;;;;;;;40.88;26.17;;;;;;;5.34;100.00;98867.24;1751483;79;21199;-48
2020/12/25 08:20:53;;;;;;;40.98;26.57;;;;;;;5.34;100.00;98867.24;1738965;78;21411;-49
2020/12/25 08:23:37;;;;;;;40.05;25.95;;;;;;;5.38;100.00;98867.48;1832904;76;22730;-57
2020/12/25 08:26:07;;;;;;;41.58;25.32;;;;;;;5.32;100.00;98863.74;1766519;79;21379;-49
2020/12/25 08:28:36;;;;;;;38.83;24.52;;;;;;;5.31;100.00;98863.34;1760409;79;21203;-48
2020/12/25 08:31:15;;;;;;;45.50;27.37;;;;;;;5.29;100.00;98859.41;1764612;79;21033;-50
2020/12/25 08:33:54;;;;;;;39.20;24.77;;;;;;;5.34;100.00;98871.25;1761942;79;21082;-53
2020/12/25 08:36:23;;;;;;;42.27;27.07;;;;;;;5.33;100.00;98865.03;1760441;78;21000;-49
2020/12/25 08:38:53;;;;;;;42.40;26.68;;;;;;;5.35;100.00;98877.86;1758511;79;21017;-53
2020/12/25 08:41:26;;;;;;;35.40;23.38;;;;;;;5.38;100.00;98879.52;1760952;79;21209;-47
2020/12/25 08:44:12;;;;;;;41.42;25.52;;;;;;;5.44;100.00;98887.30;1825698;76;22871;-47
2020/12/25 08:46:42;;;;;;;37.98;23.83;;;;;;;5.36;100.00;98881.40;1761856;80;21001;-47
2020/12/25 08:49:12;;;;;;;38.90;25.27;;;;;;;5.35;100.00;98881.87;1759483;80;21462;-48
2020/12/25 08:51:41;;;;;;;41.45;25.57;;;;;;;5.35;100.00;98876.52;1762013;79;21036;-48
2020/12/25 08:54:10;;;;;;;40.08;25.45;;;;;;;5.36;100.00;98882.73;1761449;79;21013;-46
2020/12/25 08:56:38;;;;;;;39.75;25.15;;;;;;;5.39;100.00;98883.95;1760556;80;21025;-48
2020/12/25 08:59:07;;;;;;;39.83;23.65;;;;;;;5.40;100.00;98884.34;1759753;79;20985;-48
2020/12/25 09:01:39;;;;;;;39.10;24.70;;;;;;;5.44;100.00;98893.52;1764396;80;22116;-49
2020/12/25 09:04:20;;;;;;;36.88;23.47;;;;;;;5.45;100.00;98889.03;1766202;78;21029;-48
2020/12/25 09:06:51;;;;;;;34.45;23.87;;;;;;;5.48;100.00;98891.55;1760907;78;21037;-55
2020/12/25 09:09:25;;;;;;;33.05;21.73;;;;;;;5.49;100.00;98891.98;1767099;79;20989;-47
2020/12/25 09:11:56;;;;;;;37.05;24.15;;;;;;;5.53;100.00;98893.56;1763000;79;21765;-46
2020/12/25 09:14:25;;;;;;;31.82;21.55;;;;;;;5.54;100.00;98889.98;1766357;79;21357;-48
2020/12/25 09:16:53;;;;;;;28.42;19.67;;;;;;;5.59;100.00;98891.95;1765217;79;21112;-51
2020/12/25 09:19:22;;;;;;;30.95;19.95;;;;;;;5.63;100.00;98883.33;1766701;79;21036;-48
2020/12/25 09:21:51;;;;;;;29.67;18.15;;;;;;;5.66;100.00;98888.56;1767153;79;20997;-46
2020/12/25 09:24:20;;;;;;;27.30;17.00;;;;;;;5.75;100.00;98890.37;1762347;79;21151;-46
2020/12/25 09:26:48;;;;;;;24.37;17.80;;;;;;;5.82;100.00;98880.72;1763063;79;22049;-51
2020/12/25 09:29:17;;;;;;;24.02;16.70;;;;;;;5.84;100.00;98881.51;1763283;79;21143;-52
2020/12/25 09:31:45;;;;;;;24.70;16.40;;;;;;;5.88;100.00;98877.77;1763986;79;21001;-52
2020/12/25 09:34:13;;;;;;;22.30;15.48;;;;;;;5.91;100.00;98874.94;1761769;79;21140;-51
2020/12/25 09:36:43;;;;;;;24.82;15.25;;;;;;;5.90;100.00;98870.53;1763475;79;21493;-48
2020/12/25 09:39:11;;;;;;;22.67;15.32;;;;;;;5.92;100.00;98874.05;1761599;79;21525;-47
2020/12/25 09:41:39;;;;;;;23.07;16.37;;;;;;;5.91;100.00;98885.64;1761090;79;21147;-48
2020/12/25 09:44:07;;;;;;;23.60;16.60;;;;;;;5.91;100.00;98874.94;1760428;78;21198;-49
2020/12/25 09:46:35;;;;;;;27.73;16.77;;;;;;;5.92;100.00;98890.11;1763403;79;21148;-48
2020/12/25 09:49:03;;;;;;;27.87;17.90;;;;;;;5.90;100.00;98887.45;1765538;79;21619;-51
2020/12/25 09:51:30;;;;;;;28.70;19.30;;;;;;;5.89;100.00;98884.84;1765246;79;21205;-48
2020/12/25 09:53:58;;;;;;;32.73;19.98;;;;;;;5.89;100.00;98884.84;1769025;79;21037;-45
2020/12/25 09:56:26;;;;;;;27.22;18.85;;;;;;;5.87;100.00;98874.70;1765861;79;21025;-47
2020/12/25 09:58:54;;;;;;;30.97;20.52;;;;;;;5.85;100.00;98878.76;1763184;78;21152;-48
2020/12/25 10:01:22;;;;;;;28.95;20.43;;;;;;;5.85;100.00;98877.89;1760218;78;21111;-46
2020/12/25 10:03:50;;;;;;;27.67;18.52;;;;;;;5.84;100.00;98870.81;1762716;79;21359;-48
2020/12/25 10:06:20;;;;;;;25.62;18.73;;;;;;;5.83;100.00;98859.72;1762573;79;21219;-50
2020/12/25 10:08:49;;;;;;;31.77;20.82;;;;;;;5.83;100.00;98869.08;1734566;80;21163;-50
2020/12/25 10:11:20;;;;;;;24.98;17.40;;;;;;;5.83;100.00;98858.37;1761121;79;21104;-50
2020/12/25 10:13:48;;;;;;;27.37;18.23;;;;;;;5.84;100.00;98849.41;1761021;79;21056;-49
2020/12/25 10:16:18;;;;;;;30.05;19.15;;;;;;;5.83;100.00;98847.67;1759472;79;21571;-49
2020/12/25 10:18:46;;;;;;;27.60;19.07;;;;;;;5.83;100.00;98850.35;1761791;78;21194;-50
2020/12/25 10:21:18;;;;;;;27.58;17.75;;;;;;;5.84;100.00;98853.42;1757521;79;21691;-50
2020/12/25 10:23:46;;;;;;;25.90;16.80;;;;;;;5.85;100.00;98854.67;1764318;79;21140;-50
2020/12/25 10:26:20;;;;;;;24.12;17.42;;;;;;;5.86;100.00;98855.55;1764820;79;21117;-51
2020/12/25 10:28:51;;;;;;;25.32;16.25;;;;;;;5.87;100.00;98859.98;1768460;78;21203;-49
2020/12/25 10:31:21;;;;;;;23.85;16.32;;;;;;;5.88;100.00;98854.55;1768005;80;21133;-49
2020/12/25 10:33:53;;;;;;;21.73;15.93;;;;;;;5.92;100.00;98854.85;1763740;79;21124;-48
2020/12/25 10:36:24;;;;;;;21.93;16.12;;;;;;;5.93;100.00;98854.38;1758082;80;21640;-50
2020/12/25 10:38:52;;;;;;;22.13;14.73;;;;;;;5.95;100.00;98855.16;1762191;80;21096;-49
2020/12/25 10:41:20;;;;;;;25.02;15.63;;;;;;;5.98;100.00;98857.72;1759430;79;22073;-50
2020/12/25 10:43:47;;;;;;;22.70;16.02;;;;;;;5.99;100.00;98857.64;1760357;79;21056;-60
2020/12/25 10:46:19;;;;;;;23.77;16.37;;;;;;;6.00;100.00;98865.19;1766499;80;21071;-56
2020/12/25 10:48:47;;;;;;;23.22;16.05;;;;;;;6.02;100.00;98864.67;1763207;79;21687;-57
2020/12/25 10:51:15;;;;;;;24.95;15.65;;;;;;;6.04;100.00;98873.48;1764928;80;21544;-54
2020/12/25 10:53:44;;;;;;;24.12;16.65;;;;;;;6.05;100.00;98888.59;1767153;79;21387;-54
2020/12/25 10:56:24;;;;;;;23.57;16.67;;;;;;;6.08;100.00;98879.10;1766321;79;21021;-51
2020/12/25 10:58:52;;;;;;;26.37;16.62;;;;;;;6.11;100.00;98878.94;1762238;79;21131;-51
2020/12/25 11:01:24;;;;;;;22.67;15.65;;;;;;;6.15;100.00;98881.02;1765466;79;21557;-53
2020/12/25 11:03:53;;;;;;;23.05;15.48;;;;;;;6.16;100.00;98887.63;1766996;79;20993;-53
2020/12/25 11:06:36;;;;;;;20.70;14.70;;;;;;;6.18;100.00;98892.47;1775916;78;21366;-50
2020/12/25 11:09:07;;;;;;;27.13;16.35;;;;;;;6.20;100.00;98891.91;1766802;80;21568;-52
2020/12/25 11:11:36;;;;;;;23.52;16.05;;;;;;;6.21;100.00;98890.97;1768576;79;21119;-48
2020/12/25 11:14:05;;;;;;;26.20;16.62;;;;;;;6.24;100.00;98893.98;1765761;79;21151;-50
2020/12/25 11:19:11;;;;;;;22.80;15.18;;;;;;;6.35;100.00;98901.52;1796351;77;22762;-50
2020/12/25 11:21:40;;;;;;;25.68;15.80;;;;;;;6.32;100.00;98900.31;1770740;79;21038;-50
2020/12/25 11:24:08;;;;;;;24.40;15.25;;;;;;;6.36;100.00;98907.27;1765564;79;21382;-53
2020/12/25 11:26:36;;;;;;;25.50;16.65;;;;;;;6.37;100.00;98904.98;1768273;78;20990;-53
2020/12/25 11:29:06;;;;;;;24.60;15.80;;;;;;;6.38;100.00;98909.39;1763783;79;21029;-54
2020/12/25 11:31:36;;;;;;;21.68;15.28;;;;;;;6.39;100.00;98912.02;1764112;79;21001;-56
2020/12/25 11:34:04;;;;;;;21.65;16.02;;;;;;;6.44;100.00;98911.30;1765364;79;21073;-52
2020/12/25 11:36:34;;;;;;;17.65;13.93;;;;;;;6.49;100.00;98912.43;1763071;79;21392;-55
2020/12/25 11:39:05;;;;;;;21.12;14.80;;;;;;;6.53;100.00;98912.69;1767937;79;20994;-56
2020/12/25 11:41:33;;;;;;;20.72;13.90;;;;;;;6.54;99.58;98905.91;1765312;79;21811;-53